Time;durP1;ratioP1;P1;durP2;ratioP2;P2;SDS_P1;SDS_P2;PMS_P1;PMS_P2;Temp;Humidity;BMP_temperature;BMP_pressure;BME280_temperature;BME280_humidity;BME280_pressure;Samples;Min_cycle;Max_cycle;Signal;HPM_P1;HPM_P2
2021/03/07 00:00:11;;;;;;;18.80;15.43;;;-1.50;99.90;;;;;;5029880;28;20641;-65
2021/03/07 00:02:38;;;;;;;19.63;15.47;;;-1.50;99.90;;;;;;5030974;28;20204;-65
2021/03/07 00:05:07;;;;;;;19.37;14.63;;;-1.60;99.90;;;;;;5032513;28;20240;-69
2021/03/07 00:07:33;;;;;;;18.57;14.40;;;-1.60;99.90;;;;;;5029984;28;20991;-66
2021/03/07 00:10:00;;;;;;;17.43;14.27;;;-1.60;99.90;;;;;;5030847;28;20200;-63
2021/03/07 00:12:27;;;;;;;16.93;14.70;;;-1.70;99.90;;;;;;5031327;28;20200;-62
2021/03/07 00:14:53;;;;;;;16.30;14.10;;;-1.70;99.90;;;;;;5029474;28;20200;-63
2021/03/07 00:17:19;;;;;;;18.40;15.10;;;-1.70;99.90;;;;;;5029143;28;20208;-62
2021/03/07 00:19:46;;;;;;;16.53;14.27;;;-1.70;99.90;;;;;;5028966;28;20201;-60
2021/03/07 00:22:13;;;;;;;16.43;13.20;;;-1.70;99.90;;;;;;5030466;28;20575;-60
2021/03/07 00:24:40;;;;;;;18.70;13.83;;;-1.70;99.90;;;;;;5030318;28;20216;-63
2021/03/07 00:27:06;;;;;;;16.43;12.97;;;-1.70;99.90;;;;;;5030449;28;20244;-64
2021/03/07 00:29:33;;;;;;;15.37;13.07;;;-1.70;99.90;;;;;;5032074;28;20287;-67
2021/03/07 00:31:59;;;;;;;14.73;12.80;;;-1.70;99.90;;;;;;5030728;28;20546;-62
2021/03/07 00:34:25;;;;;;;16.17;12.63;;;-1.70;99.90;;;;;;5030060;28;20668;-63
2021/03/07 00:36:52;;;;;;;19.17;13.47;;;-1.60;99.90;;;;;;5029165;28;20220;-61
2021/03/07 00:39:19;;;;;;;15.77;12.70;;;-1.50;99.90;;;;;;5028037;28;20200;-63
2021/03/07 00:41:47;;;;;;;15.43;11.87;;;-1.50;99.90;;;;;;5026345;28;20235;-63
2021/03/07 00:44:13;;;;;;;16.17;13.43;;;-1.60;99.90;;;;;;5029417;28;20266;-62
2021/03/07 00:46:40;;;;;;;16.90;12.70;;;-1.60;99.90;;;;;;5030317;28;20196;-62
2021/03/07 00:49:07;;;;;;;16.63;11.83;;;-1.70;99.90;;;;;;5020052;28;20197;-61
2021/03/07 00:51:34;;;;;;;17.40;11.90;;;-1.70;99.90;;;;;;5028776;28;20194;-63
2021/03/07 00:54:00;;;;;;;17.83;11.50;;;-1.70;99.90;;;;;;5031247;28;20200;-61
2021/03/07 00:56:28;;;;;;;15.53;11.33;;;-1.80;99.90;;;;;;5031019;28;20231;-62
2021/03/07 00:58:54;;;;;;;14.67;11.40;;;-1.80;99.90;;;;;;5030945;28;20204;-62
2021/03/07 01:01:21;;;;;;;14.80;11.50;;;-1.90;99.90;;;;;;5029781;28;20678;-63
2021/03/07 01:03:47;;;;;;;17.53;12.27;;;-1.80;99.90;;;;;;5030852;28;20274;-60
2021/03/07 01:06:14;;;;;;;15.03;11.30;;;-1.80;99.90;;;;;;5027335;28;20205;-63
2021/03/07 01:08:41;;;;;;;15.07;11.03;;;-1.70;99.90;;;;;;5029623;28;20211;-68
2021/03/07 01:11:08;;;;;;;14.83;12.17;;;-1.70;99.90;;;;;;5034497;28;20250;-62
2021/03/07 01:13:35;;;;;;;17.03;11.37;;;-1.60;99.90;;;;;;5033880;28;20211;-62
2021/03/07 01:16:02;;;;;;;15.63;11.83;;;-1.60;99.90;;;;;;5031693;28;20553;-65
2021/03/07 01:18:28;;;;;;;15.90;11.43;;;-1.60;99.90;;;;;;5032497;28;20200;-61
2021/03/07 01:20:55;;;;;;;16.27;12.20;;;-1.60;99.90;;;;;;5035324;28;20196;-67
2021/03/07 01:23:22;;;;;;;14.83;11.90;;;-1.60;99.90;;;;;;5029929;28;20585;-61
2021/03/07 01:25:49;;;;;;;14.73;11.97;;;-1.60;99.90;;;;;;5032915;28;20572;-62
2021/03/07 01:28:16;;;;;;;17.20;12.97;;;-1.60;99.90;;;;;;5033901;28;20200;-63
2021/03/07 01:30:44;;;;;;;16.03;12.00;;;-1.60;99.90;;;;;;5033837;28;20196;-66
2021/03/07 01:33:11;;;;;;;19.87;12.83;;;-1.60;99.90;;;;;;5032808;28;20197;-65
2021/03/07 01:35:38;;;;;;;15.20;12.10;;;-1.70;99.90;;;;;;5033697;28;20200;-65
2021/03/07 01:38:06;;;;;;;17.80;12.43;;;-1.70;99.90;;;;;;5031979;28;20204;-68
2021/03/07 01:40:36;;;;;;;17.87;13.10;;;-1.70;99.90;;;;;;5031336;28;20211;-62
2021/03/07 01:43:04;;;;;;;18.77;13.70;;;-1.70;99.90;;;;;;5032787;28;20200;-64
2021/03/07 01:45:33;;;;;;;19.07;12.90;;;-1.70;99.90;;;;;;5032496;28;20204;-63
2021/03/07 01:48:03;;;;;;;16.77;12.47;;;-1.50;99.90;;;;;;5031595;28;20259;-66
2021/03/07 01:50:31;;;;;;;21.53;12.90;;;-1.40;99.90;;;;;;5033945;28;20193;-66
2021/03/07 01:52:58;;;;;;;17.83;13.30;;;-1.30;99.90;;;;;;5034227;28;20204;-62
2021/03/07 01:55:26;;;;;;;19.07;13.87;;;-1.30;99.90;;;;;;5033971;28;20208;-66
2021/03/07 01:57:58;;;;;;;19.67;13.27;;;-1.30;99.90;;;;;;5033614;28;20565;-68
2021/03/07 02:00:25;;;;;;;15.10;12.00;;;-1.30;99.90;;;;;;5031558;28;20677;-69
2021/03/07 02:02:51;;;;;;;17.00;13.00;;;-1.30;99.90;;;;;;5030584;28;20205;-68
2021/03/07 02:05:20;;;;;;;18.73;13.33;;;-1.30;99.90;;;;;;5034440;28;20228;-68
2021/03/07 02:07:48;;;;;;;21.17;13.60;;;-1.30;99.90;;;;;;5030077;28;20200;-68
2021/03/07 02:10:18;;;;;;;20.43;13.47;;;-1.20;99.90;;;;;;5030747;28;20212;-67
2021/03/07 02:12:47;;;;;;;22.30;14.03;;;-1.10;99.90;;;;;;5030539;28;20200;-64
2021/03/07 02:15:15;;;;;;;20.33;13.43;;;-1.20;99.90;;;;;;5031688;28;20204;-68
2021/03/07 02:17:42;;;;;;;24.63;14.47;;;-1.10;99.90;;;;;;5030262;28;20197;-70
2021/03/07 02:20:10;;;;;;;26.17;14.67;;;-1.00;99.90;;;;;;5031204;28;20208;-66
2021/03/07 02:22:42;;;;;;;22.60;13.67;;;-1.00;99.90;;;;;;5029186;28;20203;-68
2021/03/07 02:25:12;;;;;;;23.47;14.57;;;-1.00;99.90;;;;;;5034313;28;20231;-67
2021/03/07 02:27:39;;;;;;;23.27;14.00;;;-0.90;99.90;;;;;;5032201;28;20204;-66
2021/03/07 02:30:10;;;;;;;20.57;14.43;;;-0.90;99.90;;;;;;5034174;28;20644;-68
2021/03/07 02:32:41;;;;;;;15.87;13.37;;;-0.90;99.90;;;;;;5031876;28;20556;-68
2021/03/07 02:35:13;;;;;;;23.10;14.33;;;-1.00;99.90;;;;;;5032038;28;20203;-61
2021/03/07 02:37:45;;;;;;;22.53;13.97;;;-1.10;99.90;;;;;;5028118;28;20196;-61
2021/03/07 02:40:14;;;;;;;22.60;14.70;;;-1.20;99.90;;;;;;5030988;28;20201;-60
2021/03/07 02:42:44;;;;;;;23.40;14.13;;;-1.30;99.90;;;;;;5030779;28;20192;-63
2021/03/07 02:45:17;;;;;;;17.40;12.27;;;-1.30;99.90;;;;;;5028922;28;20263;-62
2021/03/07 02:47:47;;;;;;;19.13;13.03;;;-1.40;99.90;;;;;;5030825;28;20270;-59
2021/03/07 02:50:18;;;;;;;20.33;12.50;;;-1.40;99.90;;;;;;5030453;28;20615;-62
2021/03/07 02:52:50;;;;;;;19.43;12.73;;;-1.40;99.90;;;;;;5030383;28;20570;-62
2021/03/07 02:55:19;;;;;;;20.30;12.63;;;-1.40;99.90;;;;;;5033591;28;20189;-62
2021/03/07 02:57:48;;;;;;;20.93;12.23;;;-1.50;99.90;;;;;;5032165;28;20201;-62
2021/03/07 03:00:16;;;;;;;21.20;12.40;;;-1.50;99.90;;;;;;5030977;28;20665;-63
2021/03/07 03:02:45;;;;;;;18.77;11.93;;;-1.50;99.90;;;;;;5030310;28;20196;-61
2021/03/07 03:05:13;;;;;;;17.23;12.30;;;-1.60;99.90;;;;;;5030831;28;20262;-61
2021/03/07 03:07:41;;;;;;;17.77;12.20;;;-1.60;99.90;;;;;;5032028;28;20200;-61
2021/03/07 03:10:09;;;;;;;18.20;11.50;;;-1.70;99.90;;;;;;5033352;28;20537;-63
2021/03/07 03:12:37;;;;;;;17.10;11.40;;;-1.80;99.90;;;;;;5029729;28;20196;-64
2021/03/07 03:15:06;;;;;;;18.40;11.30;;;-1.90;99.90;;;;;;5032979;28;20204;-62
2021/03/07 03:17:34;;;;;;;19.53;11.30;;;-1.90;99.90;;;;;;5031628;28;20207;-60
2021/03/07 03:20:01;;;;;;;19.50;11.77;;;-1.90;99.90;;;;;;5029465;28;20315;-62
2021/03/07 03:22:29;;;;;;;17.07;10.53;;;-1.90;99.90;;;;;;5030822;28;20193;-60
2021/03/07 03:24:55;;;;;;;19.53;11.20;;;-1.90;99.90;;;;;;5032972;28;20224;-69
2021/03/07 03:27:22;;;;;;;16.90;10.80;;;-1.90;99.90;;;;;;5031809;28;20200;-68
2021/03/07 03:29:50;;;;;;;16.40;10.77;;;-1.90;99.90;;;;;;5032114;28;20204;-62
2021/03/07 03:32:16;;;;;;;17.50;10.30;;;-1.90;99.90;;;;;;5028709;28;20200;-62
2021/03/07 03:34:42;;;;;;;20.53;11.17;;;-1.90;99.90;;;;;;5031580;28;20617;-62
2021/03/07 03:37:09;;;;;;;16.80;10.77;;;-2.00;99.90;;;;;;5031837;28;20650;-69
2021/03/07 03:39:38;;;;;;;17.00;10.93;;;-2.00;99.90;;;;;;5032968;28;20205;-63
2021/03/07 03:42:06;;;;;;;16.70;10.73;;;-2.00;99.90;;;;;;5030235;28;20305;-67
2021/03/07 03:44:35;;;;;;;17.63;10.47;;;-2.10;99.90;;;;;;5031260;28;20315;-63
2021/03/07 03:47:07;;;;;;;15.43;9.97;;;-2.10;99.90;;;;;;5029563;28;20207;-63
2021/03/07 03:49:37;;;;;;;15.67;9.83;;;-2.10;99.90;;;;;;5028445;28;20200;-64
2021/03/07 03:52:06;;;;;;;16.77;10.53;;;-2.20;99.90;;;;;;5028137;28;20262;-60
2021/03/07 03:54:39;;;;;;;14.80;11.13;;;-2.20;99.90;;;;;;5031613;28;20192;-61
2021/03/07 03:57:06;;;;;;;19.70;11.20;;;-2.20;99.90;;;;;;5032390;28;20657;-66
2021/03/07 03:59:34;;;;;;;14.17;9.70;;;-2.20;99.90;;;;;;5030451;28;20207;-61
2021/03/07 04:02:01;;;;;;;16.53;10.30;;;-2.20;99.90;;;;;;5031165;28;20208;-65
2021/03/07 04:04:30;;;;;;;13.90;10.13;;;-2.20;99.90;;;;;;5032344;28;20565;-63
2021/03/07 04:06:58;;;;;;;14.60;9.73;;;-2.20;99.90;;;;;;5028962;28;20230;-62
2021/03/07 04:09:24;;;;;;;15.20;9.97;;;-2.20;99.90;;;;;;5032528;28;20223;-63
2021/03/07 04:11:51;;;;;;;15.50;10.17;;;-2.30;99.90;;;;;;5030217;28;20204;-69
2021/03/07 04:14:19;;;;;;;17.93;10.43;;;-2.30;99.90;;;;;;5030067;28;20561;-65
2021/03/07 04:16:48;;;;;;;15.30;10.37;;;-2.30;99.90;;;;;;5032069;28;20197;-67
2021/03/07 04:19:16;;;;;;;13.40;9.47;;;-2.40;99.90;;;;;;5028304;28;20228;-64
2021/03/07 04:21:43;;;;;;;16.80;9.87;;;-2.40;99.90;;;;;;5030911;28;20630;-63
2021/03/07 04:24:11;;;;;;;16.70;10.83;;;-2.40;99.90;;;;;;5030941;28;20224;-60
2021/03/07 04:26:37;;;;;;;17.73;10.30;;;-2.40;99.90;;;;;;5029674;28;20235;-61
2021/03/07 04:29:04;;;;;;;13.97;10.77;;;-2.40;99.90;;;;;;5031276;28;20213;-62
2021/03/07 04:31:32;;;;;;;16.87;11.23;;;-2.40;99.90;;;;;;5032304;28;20192;-61
2021/03/07 04:33:59;;;;;;;18.60;10.60;;;-2.40;99.90;;;;;;5030929;28;20255;-63
2021/03/07 04:36:27;;;;;;;13.40;10.37;;;-2.40;99.90;;;;;;5029966;28;20204;-61
2021/03/07 04:38:53;;;;;;;15.87;10.33;;;-2.50;99.90;;;;;;5027305;28;20197;-62
2021/03/07 04:41:20;;;;;;;15.57;9.53;;;-2.50;99.90;;;;;;5030580;28;20754;-64
2021/03/07 04:43:50;;;;;;;17.07;10.87;;;-2.60;99.90;;;;;;5034595;28;20244;-60
2021/03/07 04:46:19;;;;;;;17.87;11.37;;;-2.60;99.90;;;;;;5034191;28;20652;-62
2021/03/07 04:48:46;;;;;;;14.67;10.33;;;-2.60;99.90;;;;;;5033367;28;20723;-64
2021/03/07 04:51:12;;;;;;;15.60;11.57;;;-2.60;99.90;;;;;;5034465;28;20562;-65
2021/03/07 04:53:39;;;;;;;14.53;10.93;;;-2.70;99.90;;;;;;5035658;28;20287;-64
2021/03/07 04:56:06;;;;;;;17.23;11.17;;;-2.70;99.90;;;;;;5035074;28;20197;-61
2021/03/07 04:58:34;;;;;;;16.20;11.03;;;-2.70;99.90;;;;;;5034870;28;20226;-62
2021/03/07 05:01:01;;;;;;;14.20;11.10;;;-2.70;99.90;;;;;;5032319;28;20196;-64
2021/03/07 05:03:28;;;;;;;15.73;11.67;;;-2.80;99.90;;;;;;5033284;28;20211;-63
2021/03/07 05:05:54;;;;;;;17.07;12.33;;;-2.80;99.90;;;;;;5035731;28;20228;-62
2021/03/07 05:08:20;;;;;;;20.93;13.30;;;-2.80;99.90;;;;;;5031170;28;20791;-63
2021/03/07 05:10:48;;;;;;;20.17;13.17;;;-2.80;99.90;;;;;;5035481;28;20242;-61
2021/03/07 05:13:14;;;;;;;18.63;12.13;;;-2.80;99.90;;;;;;5033333;28;20681;-64
2021/03/07 05:15:41;;;;;;;17.50;12.47;;;-2.80;99.90;;;;;;5035863;28;20200;-64
2021/03/07 05:18:07;;;;;;;20.90;13.10;;;-2.80;99.90;;;;;;5032317;28;20228;-62
2021/03/07 05:20:34;;;;;;;18.77;13.53;;;-2.80;99.90;;;;;;5035478;28;20251;-61
2021/03/07 05:23:00;;;;;;;20.57;13.73;;;-2.80;99.90;;;;;;5033991;28;20211;-60
2021/03/07 05:25:27;;;;;;;22.23;13.77;;;-2.90;99.90;;;;;;5033869;28;20223;-65
2021/03/07 05:27:54;;;;;;;22.23;14.90;;;-2.90;99.90;;;;;;5030353;28;20204;-62
2021/03/07 05:30:22;;;;;;;18.57;13.87;;;-2.90;99.90;;;;;;5034511;28;20236;-59
2021/03/07 05:32:49;;;;;;;22.13;16.00;;;-2.90;99.90;;;;;;5033239;28;20294;-62
2021/03/07 05:35:15;;;;;;;22.17;16.53;;;-3.00;99.90;;;;;;5034863;28;20207;-62
2021/03/07 05:37:42;;;;;;;21.50;15.07;;;-2.90;99.90;;;;;;5032564;28;20569;-62
2021/03/07 05:40:09;;;;;;;25.27;16.30;;;-2.90;99.90;;;;;;5035234;28;20192;-61
2021/03/07 05:42:35;;;;;;;21.77;17.00;;;-2.90;99.90;;;;;;5033980;28;20228;-59
2021/03/07 05:45:03;;;;;;;27.13;18.17;;;-2.90;99.90;;;;;;5030286;28;20236;-60
2021/03/07 05:47:30;;;;;;;24.53;17.10;;;-2.80;99.90;;;;;;5033737;28;20204;-61
2021/03/07 05:49:56;;;;;;;23.67;17.67;;;-2.80;99.90;;;;;;5034012;28;20586;-65
2021/03/07 05:52:24;;;;;;;27.63;19.10;;;-2.80;99.90;;;;;;5032811;28;20575;-61
2021/03/07 05:54:52;;;;;;;25.97;19.17;;;-2.90;99.90;;;;;;5033769;28;20196;-60
2021/03/07 05:57:21;;;;;;;26.77;19.17;;;-2.90;99.90;;;;;;5032325;28;20236;-60
2021/03/07 05:59:48;;;;;;;26.70;18.50;;;-2.90;99.90;;;;;;5033196;28;20204;-62
2021/03/07 06:02:16;;;;;;;25.37;18.13;;;-3.00;99.90;;;;;;5030878;28;20250;-61
2021/03/07 06:04:43;;;;;;;28.20;17.27;;;-3.00;99.90;;;;;;5034710;28;20278;-60
2021/03/07 06:07:10;;;;;;;23.20;16.50;;;-3.10;99.90;;;;;;5031228;28;20657;-61
2021/03/07 06:09:37;;;;;;;23.87;17.87;;;-3.10;99.90;;;;;;5034373;28;20205;-61
2021/03/07 06:12:13;;;;;;;24.57;16.93;;;-3.20;99.90;;;;;;5032600;28;20204;-61
2021/03/07 06:14:40;;;;;;;22.80;16.93;;;-3.20;99.90;;;;;;5030315;28;20215;-63
2021/03/07 06:17:09;;;;;;;24.23;18.27;;;-3.30;99.90;;;;;;5018433;28;20250;-63
2021/03/07 06:19:58;;;;;;;23.67;18.17;;;-3.30;99.90;;;;;;5032270;28;20254;-61
2021/03/07 06:22:26;;;;;;;20.90;16.43;;;-3.30;99.90;;;;;;5028774;28;20208;-61
2021/03/07 06:24:53;;;;;;;25.23;19.20;;;-3.30;99.90;;;;;;5034138;28;20635;-62
2021/03/07 06:27:20;;;;;;;28.97;19.43;;;-3.30;99.90;;;;;;5033084;28;20201;-68
2021/03/07 06:30:02;;;;;;;26.93;21.10;;;-3.20;99.90;;;;;;5033329;28;20723;-62
2021/03/07 06:32:31;;;;;;;32.60;20.77;;;-3.10;99.90;;;;;;5031134;28;20196;-66
2021/03/07 06:34:59;;;;;;;29.33;21.10;;;-3.00;99.90;;;;;;5032886;28;20204;-67
2021/03/07 06:37:26;;;;;;;29.53;21.50;;;-2.90;99.90;;;;;;5030039;28;20661;-62
2021/03/07 06:39:53;;;;;;;29.87;22.67;;;-2.80;99.90;;;;;;5031927;28;20201;-62
2021/03/07 06:42:20;;;;;;;29.20;21.40;;;-2.70;99.90;;;;;;5032724;28;20200;-61
2021/03/07 06:44:58;;;;;;;32.60;22.23;;;-2.60;99.90;;;;;;5029848;28;20240;-63
2021/03/07 06:47:25;;;;;;;32.20;22.40;;;-2.60;99.90;;;;;;5031207;28;20658;-62
2021/03/07 06:50:14;;;;;;;32.83;23.73;;;-2.50;99.90;;;;;;5033753;28;20350;-64
2021/03/07 06:52:55;;;;;;;31.03;22.63;;;-2.40;99.90;;;;;;5032646;28;20231;-61
2021/03/07 06:55:24;;;;;;;31.37;22.67;;;-2.30;99.90;;;;;;5033657;28;20200;-66
2021/03/07 06:57:50;;;;;;;35.10;24.93;;;-2.20;99.90;;;;;;5030875;28;20262;-67
2021/03/07 07:00:35;;;;;;;34.37;25.23;;;-2.00;99.90;;;;;;5033531;28;20204;-67
2021/03/07 07:03:10;;;;;;;34.90;25.03;;;-1.90;99.90;;;;;;5030516;28;20569;-63
2021/03/07 07:05:40;;;;;;;34.77;25.97;;;-1.60;99.90;;;;;;5031044;28;20303;-66
2021/03/07 07:08:07;;;;;;;38.23;27.13;;;-1.40;99.90;;;;;;5030241;28;20193;-62
2021/03/07 07:10:56;;;;;;;46.00;28.27;;;-1.30;99.90;;;;;;5031890;28;20200;-62
2021/03/07 07:13:23;;;;;;;40.93;29.00;;;-1.10;99.90;;;;;;5013665;28;20267;-62
2021/03/07 07:16:01;;;;;;;45.93;30.23;;;-1.00;99.90;;;;;;5013580;28;20232;-65
2021/03/07 07:18:29;;;;;;;54.13;31.63;;;-0.90;99.90;;;;;;5021671;28;20196;-63
2021/03/07 07:20:57;;;;;;;49.83;31.20;;;-0.90;99.90;;;;;;5032845;28;20196;-65
2021/03/07 07:23:25;;;;;;;53.07;33.07;;;-0.80;99.90;;;;;;5029674;28;20614;-62
2021/03/07 07:25:51;;;;;;;51.90;31.93;;;-0.80;99.90;;;;;;5031565;28;20228;-61
2021/03/07 07:28:18;;;;;;;56.10;33.10;;;-0.70;99.90;;;;;;5031482;28;20227;-65
2021/03/07 07:30:52;;;;;;;53.80;33.10;;;-0.70;99.90;;;;;;5032951;28;20224;-63
2021/03/07 07:33:30;;;;;;;55.03;32.30;;;-0.60;99.90;;;;;;5029458;28;20242;-66
2021/03/07 07:35:59;;;;;;;54.27;33.17;;;-0.50;99.90;;;;;;5032291;28;20188;-60
2021/03/07 07:38:28;;;;;;;54.33;33.67;;;-0.40;99.90;;;;;;5031523;28;20668;-63
2021/03/07 07:40:55;;;;;;;53.30;35.13;;;-0.20;99.90;;;;;;5029447;28;20215;-62
2021/03/07 07:43:21;;;;;;;57.67;35.93;;;0.00;99.90;;;;;;5026784;28;20270;-65
2021/03/07 07:45:48;;;;;;;52.23;36.10;;;0.20;99.90;;;;;;5029430;28;20343;-61
2021/03/07 07:48:32;;;;;;;56.67;37.73;;;0.50;99.90;;;;;;5031564;28;20211;-62
2021/03/07 07:51:32;;;;;;;51.83;34.93;;;0.70;99.90;;;;;;5032652;28;20185;-65
2021/03/07 07:53:59;;;;;;;60.43;38.23;;;0.80;99.90;;;;;;5030220;28;20219;-60
2021/03/07 07:56:37;;;;;;;53.57;38.33;;;0.90;99.90;;;;;;5030910;28;20200;-63
2021/03/07 07:59:05;;;;;;;62.07;40.93;;;1.00;99.90;;;;;;5032597;28;20197;-66
2021/03/07 08:01:49;;;;;;;55.87;38.57;;;1.20;99.90;;;;;;5027630;28;20201;-66
2021/03/07 08:04:35;;;;;;;59.63;39.87;;;1.40;99.90;;;;;;5025853;28;20591;-65
2021/03/07 08:07:06;;;;;;;59.23;39.00;;;1.60;99.90;;;;;;5032273;28;20271;-62
2021/03/07 08:09:40;;;;;;;63.50;40.13;;;1.90;99.90;;;;;;5026999;28;20188;-61
2021/03/07 08:12:44;;;;;;;57.67;40.50;;;2.10;99.90;;;;;;5031146;28;20242;-63
2021/03/07 08:15:45;;;;;;;57.93;39.83;;;2.10;99.90;;;;;;5031375;28;20200;-62
2021/03/07 08:18:13;;;;;;;60.70;42.97;;;2.00;99.90;;;;;;5030235;28;20192;-65
2021/03/07 08:21:07;;;;;;;72.03;47.20;;;2.20;99.90;;;;;;5032381;28;20192;-63
2021/03/07 08:23:54;;;;;;;73.50;49.43;;;2.60;99.90;;;;;;5029069;28;20204;-63
2021/03/07 08:26:21;;;;;;;73.50;49.33;;;3.20;99.90;;;;;;5030118;28;20332;-64
2021/03/07 08:28:47;;;;;;;76.67;51.70;;;3.70;99.90;;;;;;5027732;28;20555;-66
2021/03/07 08:31:36;;;;;;;77.00;51.20;;;4.50;99.90;;;;;;5029950;28;20207;-65
2021/03/07 08:34:23;;;;;;;63.97;43.03;;;5.40;99.90;;;;;;5019849;28;20184;-64
2021/03/07 08:37:00;;;;;;;49.33;33.83;;;5.80;99.90;;;;;;5027041;28;20200;-64
2021/03/07 08:39:28;;;;;;;34.27;25.47;;;6.20;99.90;;;;;;5016242;28;20192;-62
2021/03/07 08:41:59;;;;;;;31.17;22.90;;;6.30;99.90;;;;;;5029667;28;20201;-69
2021/03/07 08:44:26;;;;;;;24.00;19.57;;;6.30;99.90;;;;;;5030468;28;20759;-62
2021/03/07 08:46:53;;;;;;;25.00;19.17;;;6.50;99.90;;;;;;5030739;28;20310;-66
2021/03/07 08:49:21;;;;;;;21.17;17.30;;;6.80;99.90;;;;;;5030901;28;20196;-63
2021/03/07 08:51:49;;;;;;;18.23;14.17;;;7.40;99.90;;;;;;5030869;28;20231;-64
2021/03/07 08:54:20;;;;;;;17.73;11.80;;;7.90;99.90;;;;;;5028829;28;20208;-63
2021/03/07 08:56:48;;;;;;;11.83;10.03;;;8.40;99.90;;;;;;5012207;28;20190;-59
2021/03/07 08:59:15;;;;;;;11.73;10.20;;;8.90;99.90;;;;;;5018241;28;20306;-65
2021/03/07 09:01:42;;;;;;;16.10;12.00;;;9.50;99.90;;;;;;5018422;28;20299;-67
2021/03/07 09:04:10;;;;;;;12.00;10.57;;;10.20;99.90;;;;;;5020598;28;20251;-68
2021/03/07 09:06:38;;;;;;;12.60;10.80;;;10.70;99.90;;;;;;5021267;28;20207;-62
2021/03/07 09:09:07;;;;;;;11.27;10.07;;;11.00;99.90;;;;;;5021455;28;20593;-67
2021/03/07 09:11:35;;;;;;;12.43;10.03;;;11.10;99.90;;;;;;5025635;28;20204;-68
2021/03/07 09:14:03;;;;;;;11.37;10.10;;;11.30;99.90;;;;;;5028227;28;20246;-65
2021/03/07 09:16:38;;;;;;;12.00;9.90;;;11.70;99.90;;;;;;5028049;28;20196;-66
2021/03/07 09:19:19;;;;;;;10.63;9.63;;;12.20;99.90;;;;;;5026563;28;20215;-64
2021/03/07 09:21:46;;;;;;;10.17;9.17;;;12.60;99.90;;;;;;5028166;28;20230;-65
2021/03/07 09:24:13;;;;;;;10.67;9.57;;;12.70;99.90;;;;;;5028180;28;20229;-66
2021/03/07 09:26:39;;;;;;;11.87;10.23;;;12.60;99.90;;;;;;5027462;28;20227;-67
2021/03/07 09:29:07;;;;;;;10.73;9.73;;;12.80;99.90;;;;;;5018649;28;20212;-67
2021/03/07 09:31:35;;;;;;;11.50;10.27;;;12.80;99.90;;;;;;5024749;28;20208;-67
2021/03/07 09:34:03;;;;;;;11.90;10.73;;;12.80;99.90;;;;;;5024404;28;21346;-69
2021/03/07 09:36:31;;;;;;;11.57;10.47;;;12.50;99.90;;;;;;5023731;28;20208;-68
2021/03/07 09:39:00;;;;;;;13.07;11.17;;;12.80;99.90;;;;;;5025645;28;20234;-69
2021/03/07 09:41:33;;;;;;;12.17;11.00;;;13.40;99.90;;;;;;5029742;28;20213;-68
2021/03/07 09:44:02;;;;;;;11.93;10.83;;;13.70;99.90;;;;;;5027839;28;20231;-68
2021/03/07 09:46:29;;;;;;;13.03;11.73;;;13.90;99.90;;;;;;5023924;28;20205;-69
2021/03/07 09:48:59;;;;;;;11.43;10.33;;;14.10;99.90;;;;;;5021109;28;20231;-69
2021/03/07 09:51:30;;;;;;;12.03;10.73;;;14.00;99.90;;;;;;5021453;28;20231;-71
2021/03/07 09:53:56;;;;;;;12.40;11.23;;;14.40;99.90;;;;;;5020279;28;20644;-69
2021/03/07 09:56:34;;;;;;;12.03;11.00;;;14.60;99.90;;;;;;5015337;28;20760;-63
2021/03/07 09:59:16;;;;;;;12.20;10.63;;;14.90;99.90;;;;;;5018707;28;20283;-63
2021/03/07 10:01:50;;;;;;;10.37;9.37;;;15.20;99.90;;;;;;5019761;28;20196;-61
2021/03/07 10:04:37;;;;;;;11.33;10.33;;;14.60;99.90;;;;;;5020029;28;20306;-61
2021/03/07 10:07:26;;;;;;;13.47;11.30;;;13.60;99.90;;;;;;5021741;28;20721;-65
2021/03/07 10:10:00;;;;;;;12.30;11.10;;;12.40;99.90;;;;;;5019766;28;20197;-63
2021/03/07 10:12:39;;;;;;;11.53;10.37;;;12.00;99.90;;;;;;5019933;28;20268;-65
2021/03/07 10:15:07;;;;;;;10.27;9.17;;;11.70;99.90;;;;;;5023486;28;20203;-64
2021/03/07 10:17:39;;;;;;;11.07;9.87;;;11.60;99.90;;;;;;5022475;28;20531;-62
2021/03/07 10:20:09;;;;;;;11.40;10.20;;;11.30;99.90;;;;;;5020460;28;20212;-69
2021/03/07 10:22:37;;;;;;;12.27;11.07;;;10.80;99.90;;;;;;5016731;28;20247;-67
2021/03/07 10:25:06;;;;;;;12.40;11.20;;;10.60;99.90;;;;;;5016633;28;22203;-64
2021/03/07 10:27:33;;;;;;;12.47;11.17;;;10.30;99.90;;;;;;5001109;28;20208;-66
2021/03/07 10:29:59;;;;;;;12.27;10.90;;;10.30;99.90;;;;;;5015043;28;20201;-63
2021/03/07 10:32:26;;;;;;;11.90;10.70;;;10.20;99.90;;;;;;5014636;28;20250;-63
2021/03/07 10:34:54;;;;;;;12.87;11.57;;;10.30;99.90;;;;;;5015772;28;20341;-68
2021/03/07 10:37:36;;;;;;;11.47;10.27;;;10.40;99.90;;;;;;5022014;28;20763;-65
2021/03/07 10:40:04;;;;;;;11.13;9.83;;;10.70;99.90;;;;;;5022674;28;20713;-65
2021/03/07 10:42:32;;;;;;;10.63;9.63;;;10.50;99.90;;;;;;5019707;28;20291;-65
2021/03/07 10:45:12;;;;;;;12.07;10.30;;;9.90;99.90;;;;;;5021580;28;20251;-61
2021/03/07 10:47:38;;;;;;;12.17;10.80;;;9.30;99.90;;;;;;5023928;28;20254;-62
2021/03/07 10:50:07;;;;;;;12.20;11.00;;;9.10;99.90;;;;;;5021192;28;20215;-61
2021/03/07 10:52:34;;;;;;;12.83;11.37;;;8.90;99.90;;;;;;5022868;28;20252;-61
2021/03/07 10:55:00;;;;;;;11.97;10.63;;;9.50;99.90;;;;;;5025273;28;20234;-60
2021/03/07 10:57:27;;;;;;;11.60;10.30;;;10.00;99.90;;;;;;5033816;28;20203;-63
2021/03/07 10:59:53;;;;;;;11.40;10.30;;;10.40;99.90;;;;;;5036770;28;20243;-60
2021/03/07 11:02:20;;;;;;;11.13;10.03;;;10.30;99.90;;;;;;5032857;28;20200;-59
2021/03/07 11:04:46;;;;;;;11.17;10.07;;;10.20;99.90;;;;;;5039312;28;20290;-63
2021/03/07 11:07:17;;;;;;;11.60;10.40;;;10.20;99.90;;;;;;5028810;28;20209;-61
2021/03/07 11:09:43;;;;;;;12.73;9.80;;;10.60;99.90;;;;;;5031270;28;20200;-60
2021/03/07 11:12:11;;;;;;;10.03;9.03;;;10.80;99.90;;;;;;5031437;28;20223;-70
2021/03/07 11:14:37;;;;;;;11.30;9.70;;;10.60;99.90;;;;;;5033126;28;20200;-62
2021/03/07 11:17:04;;;;;;;9.67;8.70;;;10.40;99.90;;;;;;5021571;28;20196;-62
2021/03/07 11:19:30;;;;;;;10.20;9.20;;;10.10;99.90;;;;;;5027315;28;20204;-61
2021/03/07 11:21:57;;;;;;;10.60;9.50;;;10.00;99.90;;;;;;5028115;28;20227;-65
2021/03/07 11:24:24;;;;;;;10.70;9.60;;;10.00;99.90;;;;;;5031732;28;20700;-68
2021/03/07 11:26:51;;;;;;;11.70;10.10;;;9.80;99.90;;;;;;5032572;28;20204;-59
2021/03/07 11:29:17;;;;;;;11.07;9.97;;;9.60;99.90;;;;;;5032446;28;20279;-64
2021/03/07 11:31:44;;;;;;;11.23;10.13;;;9.60;99.90;;;;;;5032559;28;20208;-64
2021/03/07 11:34:10;;;;;;;11.50;10.27;;;9.70;99.90;;;;;;5032712;28;20200;-60
2021/03/07 11:36:37;;;;;;;11.60;10.40;;;9.90;99.90;;;;;;5030403;28;20207;-68
2021/03/07 11:39:04;;;;;;;13.20;11.00;;;10.20;99.90;;;;;;5031461;28;20200;-63
2021/03/07 11:41:31;;;;;;;11.93;10.20;;;10.10;99.90;;;;;;5028729;28;20653;-67
2021/03/07 11:43:57;;;;;;;12.73;11.43;;;9.80;99.90;;;;;;5030747;28;20232;-64
2021/03/07 11:46:24;;;;;;;12.17;10.87;;;9.80;99.90;;;;;;5037037;28;20227;-64
2021/03/07 11:48:50;;;;;;;12.93;11.20;;;10.20;99.90;;;;;;5039040;28;20563;-61
2021/03/07 11:51:17;;;;;;;12.40;11.10;;;10.30;99.90;;;;;;5039295;28;20232;-65
2021/03/07 11:53:43;;;;;;;13.73;12.30;;;10.10;99.90;;;;;;5035296;28;20603;-68
2021/03/07 11:56:10;;;;;;;13.73;11.53;;;9.90;99.90;;;;;;5033823;28;21201;-63
2021/03/07 11:58:37;;;;;;;11.50;9.87;;;10.20;99.90;;;;;;5045146;28;20204;-61
2021/03/07 12:01:04;;;;;;;11.20;10.07;;;10.30;99.90;;;;;;5033228;28;20708;-66
2021/03/07 12:03:30;;;;;;;11.27;10.03;;;10.20;99.90;;;;;;5031051;28;20257;-64
2021/03/07 12:05:57;;;;;;;10.57;9.47;;;10.20;99.90;;;;;;5027170;28;20227;-66
2021/03/07 12:08:23;;;;;;;10.60;9.50;;;10.40;99.90;;;;;;5032022;28;20673;-65
2021/03/07 12:10:50;;;;;;;10.50;9.50;;;10.40;99.90;;;;;;5024596;28;20302;-62
2021/03/07 12:13:16;;;;;;;11.47;10.27;;;9.90;99.90;;;;;;5026591;28;20196;-62
2021/03/07 12:15:44;;;;;;;11.77;10.37;;;9.90;99.90;;;;;;5028833;28;20197;-71
2021/03/07 12:18:11;;;;;;;11.13;9.93;;;9.80;99.90;;;;;;5025222;28;20232;-67
2021/03/07 12:20:38;;;;;;;14.87;11.47;;;9.80;99.90;;;;;;5023053;28;20338;-64
2021/03/07 12:23:04;;;;;;;12.57;10.30;;;10.00;99.90;;;;;;5025462;28;20204;-62
2021/03/07 12:25:31;;;;;;;10.47;9.47;;;9.90;99.90;;;;;;5021914;28;20792;-62
2021/03/07 12:27:57;;;;;;;11.07;9.97;;;9.80;99.90;;;;;;5019416;28;20201;-62
2021/03/07 12:30:33;;;;;;;10.33;9.23;;;9.80;99.90;;;;;;5015999;28;20192;-65
2021/03/07 12:33:10;;;;;;;10.97;9.80;;;10.00;99.90;;;;;;5019306;28;20220;-63
2021/03/07 12:35:44;;;;;;;10.00;9.07;;;10.00;99.90;;;;;;5019640;28;20219;-64
2021/03/07 12:38:13;;;;;;;10.67;8.87;;;9.90;99.90;;;;;;5003567;28;20258;-63
2021/03/07 12:40:46;;;;;;;7.53;6.40;;;10.40;99.90;;;;;;5019986;28;20207;-63